EDT,Max TemperatureF,Mean TemperatureF,Min TemperatureF,Max Dew PointF,MeanDew PointF,Min DewpointF,Max Humidity, Mean Humidity, Min Humidity, Max Sea Level PressureIn, Mean Sea Level PressureIn, Min Sea Level PressureIn, Max VisibilityMiles, Mean VisibilityMiles, Min VisibilityMiles, Max Wind SpeedMPH, Mean Wind SpeedMPH, Max Gust SpeedMPH,PrecipitationIn, CloudCover, Events, WindDirDegrees
2013-5-1,81,67,53,55,52,48,82,57,35,30.18,30.14,30.05,10,9,7,13,6,17,0.00,1,,147
2013-5-2,74,66,58,54,52,50,80,59,43,30.20,30.15,30.09,10,9,7,15,7,21,0.00,1,,134
2013-5-3,74,66,59,56,52,40,77,60,39,30.09,30.01,29.94,10,9,7,20,9,25,0.00,2,,139
2013-5-4,69,63,57,50,41,36,73,47,31,30.02,29.99,29.96,10,9,5,20,11,25,0.00,1,,122
2013-5-5,65,59,53,52,47,43,86,69,45,30.01,29.98,29.96,10,9,5,16,6,24,0.01,4,Rain,93
2013-5-6,69,61,53,53,48,42,86,63,49,29.99,29.97,29.93,10,9,7,18,7,23,0.00,6,Rain,79
2013-5-7,73,64,55,57,52,48,86,66,41,30.02,29.99,29.96,10,9,5,15,5,22,0.03,6,Rain,73
2013-5-8,76,64,52,55,51,44,95,65,32,30.04,30.00,29.97,10,8,2,9,3,,0.03,2,Rain,17
2013-5-9,78,66,53,57,52,42,89,65,27,30.01,29.97,29.90,10,8,2,29,6,36,0.29,4,Rain,228
2013-5-10,66,56,47,60,55,43,94,84,74,29.92,29.86,29.82,10,7,2,17,11,28,0.12,6,Rain,254
2013-5-11,59,51,43,50,42,33,93,81,63,30.01,29.93,29.84,10,7,2,22,10,30,0.02,7,Rain,299
2013-5-12,52,44,36,36,30,23,87,61,32,30.13,30.07,30.02,10,8,4,18,9,30,0.00,3,Snow,301
2013-5-13,61,48,36,33,28,19,83,50,20,30.19,30.14,30.11,10,9,5,15,4,23,0.00,2,,320
2013-5-14,83,66,49,57,43,31,60,45,32,30.11,29.92,29.79,10,9,7,26,12,33,0.00,3,,209
2013-5-15,85,76,68,56,52,48,63,44,27,29.85,29.81,29.78,10,9,7,26,16,34,0.00,1,,259
2013-5-16,79,70,60,61,51,40,93,55,24,29.98,29.91,29.83,10,9,5,17,5,,0.00,3,,120
2013-5-17,78,67,56,64,60,53,96,85,54,30.08,30.04,29.98,10,5,0,16,4,31,0.44,5,Fog-Rain,110
2013-5-18,76,66,57,63,59,50,94,77,60,30.11,30.05,29.99,10,8,5,12,5,,0.02,6,Rain,93
2013-5-19,82,70,59,64,61,54,87,70,49,30.01,29.96,29.87,10,8,5,10,4,,0.00,2,,151
2013-5-20,84,76,68,68,64,61,91,68,47,29.95,29.90,29.84,10,8,4,23,11,29,0.00,3,,193
2013-5-21,84,74,63,65,60,54,88,64,35,29.88,29.82,29.76,10,9,5,26,13,33,0.02,1,Rain,209
2013-5-22,74,68,61,61,58,49,92,71,47,29.80,29.76,29.71,10,9,5,28,12,34,0.12,7,Rain,209
2013-5-23,63,56,48,58,52,43,88,81,68,30.17,29.93,29.79,10,9,3,21,10,26,0.06,7,,289
2013-5-24,63,52,42,43,36,30,88,58,29,30.37,30.30,30.17,10,10,5,14,7,20,0.00,2,,357
2013-5-25,62,52,43,40,36,32,77,51,33,30.39,30.33,30.25,10,9,4,10,4,,0.00,4,,258
2013-5-26,68,56,45,49,40,34,80,51,33,30.32,30.26,30.19,10,9,5,12,5,,0.00,4,Rain,145
2013-5-27,68,60,52,64,54,43,94,80,52,30.20,30.06,29.92,10,8,0,21,9,26,1.51,7,Rain,129
2013-5-28,78,70,61,65,63,60,96,77,61,29.96,29.93,29.90,10,8,0,23,9,30,0.02,4,Fog-Rain,207
2013-5-29,83,76,68,64,60,57,74,61,43,30.04,30.00,29.95,10,9,7,20,12,26,0.00,2,,208
2013-5-30,84,74,65,65,62,59,84,64,46,30.08,30.03,29.96,10,9,5,22,11,29,0.00,2,Rain,187
2013-5-31,73,70,66,67,64,60,91,79,70,30.01,29.96,29.89,10,8,1,17,12,22,0.33,5,Rain,195